Time;durP1;ratioP1;P1;durP2;ratioP2;P2;SDS_P1;SDS_P2;PMS_P1;PMS_P2;Temp;Humidity;BMP_temperature;BMP_pressure;BME280_temperature;BME280_humidity;BME280_pressure;Samples;Min_cycle;Max_cycle;Signal;HPM_P1;HPM_P2
2021/12/17 00:05:06;;;;;;;;;52.25;41.50;;;;;7.78;68.82;103393.88;6152181;23;45411;-96
2021/12/17 00:07:39;;;;;;;;;46.25;39.00;;;;;7.87;68.86;103415.69;6131571;23;45749;-95
2021/12/17 00:10:16;;;;;;;;;52.75;41.50;;;;;7.92;69.95;103447.53;6130280;23;45448;-95
2021/12/17 00:13:05;;;;;;;;;52.00;43.75;;;;;7.83;69.04;103427.53;6131278;23;46761;-95
2021/12/17 00:15:37;;;;;;;;;57.50;45.00;;;;;7.75;68.84;103410.16;6130875;23;45423;-95
2021/12/17 00:18:15;;;;;;;;;52.00;43.50;;;;;7.62;69.38;103380.94;6156703;23;45430;-96
2021/12/17 00:44:17;;;;;;;;;54.50;44.25;;;;;7.55;69.84;103418.63;6180030;23;45523;-95
2021/12/17 00:52:53;;;;;;;;;60.25;46.50;;;;;7.43;69.52;103406.16;6179916;23;45378;-95
2021/12/17 00:55:31;;;;;;;;;61.75;47.00;;;;;7.43;69.87;103402.59;6178605;23;45851;-96
2021/12/17 00:58:20;;;;;;;;;52.25;42.00;;;;;7.29;71.06;103376.00;6154400;23;47966;-96
2021/12/17 01:00:54;;;;;;;;;49.00;42.50;;;;;7.33;71.52;103372.00;6179163;23;45833;-96
2021/12/17 01:03:47;;;;;;;;;;;;;;;;;;;;;
2021/12/17 01:06:31;;;;;;;;;;;;;;;;;;;;;
2021/12/17 01:09:45;;;;;;;;;;;;;;;;;;;;;
2021/12/17 01:12:51;;;;;;;;;47.25;42.00;;;;;7.71;72.09;103389.69;6242018;22;72826;-96
2021/12/17 01:15:37;;;;;;;;;49.00;40.50;;;;;7.69;71.98;103381.72;6267009;22;45291;-95
2021/12/17 01:22:24;;;;;;;;;;;;;;;;;;;;;
2021/12/17 01:25:38;;;;;;;;;44.75;38.00;;;;;7.91;71.56;103404.75;6237561;22;45211;-94
2021/12/17 01:43:35;;;;;;;;;46.50;36.25;;;;;7.88;70.93;103385.25;6210771;22;45560;-96
2021/12/17 01:46:19;;;;;;;;;46.75;38.00;;;;;7.79;71.62;103370.47;6183988;22;46723;-95
2021/12/17 01:55:47;;;;;;;;;43.50;38.25;;;;;8.05;71.30;103410.44;6208584;22;45394;-95
2021/12/17 02:01:38;;;;;;;;;;;;;;;;;;;;;
2021/12/17 02:04:24;;;;;;;;;50.00;37.50;;;;;7.79;71.09;103365.25;6209179;22;68790;-96
2021/12/17 02:07:06;;;;;;;;;43.50;35.00;;;;;7.87;70.88;103384.31;6183915;22;45317;-96
2021/12/17 02:19:58;;;;;;;;;;;;;;;;;;;;;
2021/12/17 02:28:53;;;;;;;;;46.00;37.75;;;;;7.70;70.75;103357.44;6149294;23;45509;-95
2021/12/17 02:31:27;;;;;;;;;50.50;39.00;;;;;7.78;70.79;103376.47;6123990;23;45309;-95
2021/12/17 02:37:03;;;;;;;;;;;;;;;;;;;;;
2021/12/17 02:45:31;;;;;;;;;40.25;35.00;;;;;7.62;71.12;103367.88;6179520;23;45415;-96
2021/12/17 02:45:36;;;;;;;;;40.25;36.75;;;;;7.69;70.78;103373.88;6177313;23;45486;-95
2021/12/17 02:48:28;;;;;;;;;45.25;38.75;;;;;7.81;70.82;103396.75;6148504;23;45529;-96
2021/12/17 02:51:21;;;;;;;;;;;;;;;;;;;;;
2021/12/17 02:54:21;;;;;;;;;;;;;;;;;;;;;
2021/12/17 02:57:36;;;;;;;;;47.00;37.25;;;;;7.49;70.72;103345.75;6239029;22;75092;-96
2021/12/17 03:03:45;;;;;;;;;48.00;39.00;;;;;7.65;70.49;103382.19;6001826;23;45401;-96
2021/12/17 03:06:40;;;;;;;;;;;;;;;;;;;;;
2021/12/17 03:13:10;;;;;;;;;45.50;37.25;;;;;7.40;71.52;103352.63;6003251;23;45489;-96
2021/12/17 03:17:04;;;;;;;;;;;;;;;;;;;;;
2021/12/17 03:25:19;;;;;;;;;;;;;;;;;;;;;
2021/12/17 03:28:12;;;;;;;;;48.50;40.00;;;;;7.32;71.73;103344.06;5973619;23;68054;-96
2021/12/17 03:34:38;;;;;;;;;;;;;;;;;;;;;
2021/12/17 03:40:41;;;;;;;;;45.00;37.25;;;;;7.41;71.71;103364.94;5878404;24;45433;-96
2021/12/17 03:43:29;;;;;;;;;46.00;40.25;;;;;7.35;71.57;103353.09;5869505;24;45394;-96
2021/12/17 03:49:58;;;;;;;;;44.00;38.00;;;;;7.49;71.74;103367.56;5914933;23;45311;-96
2021/12/17 03:56:01;;;;;;;;;;;;;;;;;;;;;
2021/12/17 04:09:49;;;;;;;;;;;;;;;;;;;;;
2021/12/17 04:20:10;;;;;;;;;50.50;36.75;;;;;7.90;71.67;103357.53;5876265;24;45403;-96
2021/12/17 04:23:05;;;;;;;;;50.25;39.75;;;;;7.86;71.43;103343.22;5891596;24;45843;-96
2021/12/17 04:25:57;;;;;;;;;42.25;36.50;;;;;7.88;71.61;103340.78;5897332;24;46866;-95
2021/12/17 04:29:20;;;;;;;;;49.75;39.75;;;;;7.98;71.38;103342.59;5919763;24;45373;-96
2021/12/17 04:32:21;;;;;;;;;;;;;;;;;;;;;
2021/12/17 04:38:57;;;;;;;;;;;;;;;;;;;;;
2021/12/17 05:01:51;;;;;;;;;;;;;;;;;;;;;
2021/12/17 05:22:08;;;;;;;;;;;;;;;;;;;;;
2021/12/17 05:25:14;;;;;;;;;41.50;32.50;;;;;8.65;71.05;103345.47;5918026;24;67845;-96
2021/12/17 05:28:16;;;;;;;;;37.25;33.50;;;;;8.59;71.12;103324.88;5908308;23;45243;-96
2021/12/17 05:56:02;;;;;;;;;40.40;30.60;;;;;8.71;70.79;103312.94;5512263;22;19614140;-93
2021/12/17 06:02:48;;;;;;;;;38.25;36.00;;;;;8.77;71.00;103324.75;6095834;23;45429;-94
2021/12/17 06:05:54;;;;;;;;;37.00;33.50;;;;;8.76;70.94;103309.84;6071090;23;47163;-95
2021/12/17 06:09:33;;;;;;;;;;;;;;;;;;;;;
2021/12/17 06:16:39;;;;;;;;;;;;;;;;;;;;;
2021/12/17 06:36:56;;;;;;;;;42.50;36.50;;;;;9.01;70.71;103361.91;5170863;22;24960959;-95
2021/12/17 07:32:52;;;;;;;;;39.25;31.75;;;;;9.20;70.87;103377.66;5071855;27;45673;-84
2021/12/17 07:40:31;;;;;;;;;41.00;34.75;;;;;9.20;70.60;103382.00;5088657;27;45391;-85
2021/12/17 07:42:57;;;;;;;;;41.25;34.75;;;;;9.24;70.76;103384.13;5093198;27;45512;-85
2021/12/17 07:45:22;;;;;;;;;41.50;34.00;;;;;9.25;70.71;103383.34;5091320;27;45480;-85
2021/12/17 07:47:47;;;;;;;;;42.75;35.75;;;;;9.30;70.50;103382.09;5096504;27;46279;-85
2021/12/17 07:50:13;;;;;;;;;39.75;33.50;;;;;9.25;70.71;103370.25;5085913;27;45360;-85
2021/12/17 07:52:38;;;;;;;;;49.00;38.25;;;;;9.31;70.80;103377.75;5080103;27;45388;-85
2021/12/17 07:55:04;;;;;;;;;45.00;37.25;;;;;9.35;70.68;103379.88;5088142;27;52602;-86
2021/12/17 07:57:29;;;;;;;;;47.75;39.75;;;;;9.37;70.51;103381.88;5088647;27;45406;-85
2021/12/17 07:59:54;;;;;;;;;43.75;38.25;;;;;9.36;70.61;103377.41;5089188;27;45584;-86
2021/12/17 08:02:20;;;;;;;;;45.00;35.75;;;;;9.39;70.50;103375.06;5083236;27;45443;-85
2021/12/17 08:04:45;;;;;;;;;37.50;32.00;;;;;9.45;70.77;103382.59;5111455;27;45409;-86
2021/12/17 08:07:10;;;;;;;;;48.00;36.75;;;;;9.47;70.56;103382.72;5084999;27;46197;-85
2021/12/17 08:09:36;;;;;;;;;40.00;34.75;;;;;9.44;70.12;103364.06;5093143;27;45564;-85
2021/12/17 08:12:02;;;;;;;;;37.00;32.75;;;;;9.46;70.27;103378.25;5095695;27;45291;-86
2021/12/17 08:14:29;;;;;;;;;44.75;35.25;;;;;9.47;70.50;103369.59;5088419;27;45646;-86
2021/12/17 08:27:47;;;;;;;;;38.75;30.75;;;;;9.59;70.34;103377.69;5076578;27;45383;-86
2021/12/17 08:32:38;;;;;;;;;35.00;31.75;;;;;9.65;70.39;103388.75;5071727;27;45539;-86
2021/12/17 08:35:05;;;;;;;;;40.00;34.75;;;;;9.68;70.42;103382.84;5070023;28;45360;-86
2021/12/17 08:37:31;;;;;;;;;39.25;30.00;;;;;9.70;70.13;103389.16;5061339;27;46491;-86
2021/12/17 08:39:56;;;;;;;;;38.25;33.25;;;;;9.76;69.72;103388.81;5064128;28;46090;-86
2021/12/17 08:42:22;;;;;;;;;40.75;32.75;;;;;9.77;70.08;103388.94;5066063;27;45439;-86
2021/12/17 08:44:47;;;;;;;;;35.00;31.00;;;;;9.76;70.07;103381.88;5082546;27;45502;-86
2021/12/17 08:47:12;;;;;;;;;42.75;33.25;;;;;9.78;69.90;103390.78;5077832;27;46972;-87
2021/12/17 08:49:40;;;;;;;;;31.67;29.00;;;;;9.75;69.93;103376.47;5069342;28;45445;-89
2021/12/17 08:52:07;;;;;;;;;38.50;33.00;;;;;9.82;69.72;103373.59;5069460;27;45496;-87
2021/12/17 08:54:33;;;;;;;;;40.25;27.50;;;;;9.81;69.95;103377.97;5069252;27;45627;-87
2021/12/17 08:56:58;;;;;;;;;38.00;34.00;;;;;9.82;70.05;103374.53;5069720;28;46595;-87
2021/12/17 08:59:24;;;;;;;;;41.50;35.00;;;;;9.87;69.79;103387.19;5064791;27;45486;-87
2021/12/17 09:01:49;;;;;;;;;42.75;34.75;;;;;9.89;70.07;103378.66;5084591;27;45514;-87
2021/12/17 09:04:16;;;;;;;;;33.75;27.75;;;;;9.91;70.06;103384.97;5085030;27;45685;-87
2021/12/17 09:06:42;;;;;;;;;34.00;29.50;;;;;9.91;69.72;103386.66;5063832;28;45453;-87
2021/12/17 09:09:08;;;;;;;;;37.00;33.50;;;;;9.88;69.58;103387.31;5091516;27;45715;-87
2021/12/17 09:11:34;;;;;;;;;34.75;27.25;;;;;9.97;70.05;103397.72;5063770;28;45555;-87
2021/12/17 09:14:01;;;;;;;;;35.25;28.25;;;;;10.00;69.53;103399.72;5072958;28;45356;-87
2021/12/17 09:16:26;;;;;;;;;28.00;22.25;;;;;10.02;69.74;103395.50;5075944;27;46552;-87
2021/12/17 09:18:54;;;;;;;;;34.50;28.25;;;;;10.00;70.15;103391.84;5060036;27;45844;-87
2021/12/17 09:21:19;;;;;;;;;41.25;31.50;;;;;10.08;69.93;103403.91;5060735;28;45502;-87
2021/12/17 09:23:45;;;;;;;;;27.75;24.00;;;;;10.12;69.49;103407.75;5063019;27;45477;-87
2021/12/17 09:26:12;;;;;;;;;29.00;27.25;;;;;10.10;69.70;103407.59;5080803;27;45610;-87
2021/12/17 09:28:37;;;;;;;;;29.75;28.00;;;;;10.09;69.29;103399.59;5060254;27;45603;-87
2021/12/17 09:31:05;;;;;;;;;30.00;25.67;;;;;10.11;69.37;103417.34;5066227;27;45313;-87
2021/12/17 09:33:31;;;;;;;;;38.00;29.25;;;;;10.10;69.71;103419.84;5069809;27;45487;-87
2021/12/17 09:35:56;;;;;;;;;33.67;25.00;;;;;10.02;69.42;103404.31;5059697;28;48088;-87
2021/12/17 09:38:21;;;;;;;;;33.25;28.00;;;;;10.09;69.58;103412.72;5066511;28;45485;-87
2021/12/17 09:40:47;;;;;;;;;27.00;22.67;;;;;10.05;69.37;103406.28;5060861;27;45821;-87
2021/12/17 09:43:14;;;;;;;;;35.75;27.00;;;;;10.09;69.47;103411.03;5069906;27;45482;-87
2021/12/17 09:45:40;;;;;;;;;31.33;22.33;;;;;10.11;69.27;103409.47;5069912;27;45706;-87
2021/12/17 09:48:05;;;;;;;;;32.00;23.25;;;;;10.13;69.44;103420.09;5067342;27;45558;-87
2021/12/17 09:50:30;;;;;;;;;34.50;26.50;;;;;10.10;69.29;103420.72;5071621;27;45712;-87
2021/12/17 09:52:56;;;;;;;;;35.25;27.25;;;;;10.17;69.09;103438.91;5066317;28;45471;-87
2021/12/17 09:55:23;;;;;;;;;35.50;29.50;;;;;10.14;68.59;103420.25;5064063;28;45609;-87
2021/12/17 09:57:48;;;;;;;;;29.33;25.00;;;;;10.19;68.64;103445.97;5081015;27;45444;-87
2021/12/17 10:00:21;;;;;;;;;36.25;25.75;;;;;10.15;68.96;103431.66;5079981;27;45519;-87
2021/12/17 10:02:48;;;;;;;;;33.25;25.50;;;;;10.14;69.16;103435.06;5065434;27;45665;-87
2021/12/17 10:05:35;;;;;;;;;27.67;22.67;;;;;10.17;69.30;103443.22;5087311;27;47144;-87
2021/12/17 10:08:05;;;;;;;;;32.67;27.33;;;;;10.19;69.32;103444.28;5088733;27;45690;-87
2021/12/17 10:10:39;;;;;;;;;32.00;25.67;;;;;10.19;68.99;103433.78;5074318;27;45518;-87
2021/12/17 10:13:09;;;;;;;;;31.75;24.25;;;;;10.19;69.16;103432.84;5066524;27;45718;-87
2021/12/17 10:15:36;;;;;;;;;29.33;27.33;;;;;10.20;69.44;103433.00;5079114;27;48215;-87
2021/12/17 10:18:03;;;;;;;;;29.33;27.00;;;;;10.16;69.39;103423.91;5070320;27;45539;-87
2021/12/17 10:20:32;;;;;;;;;32.50;28.00;;;;;10.22;69.23;103420.00;5077838;27;45547;-87
2021/12/17 10:23:04;;;;;;;;;32.50;26.75;;;;;10.28;68.82;103420.56;5088146;27;46480;-86
2021/12/17 10:25:31;;;;;;;;;37.00;29.67;;;;;10.30;69.28;103423.31;5087963;27;48313;-87
2021/12/17 10:28:00;;;;;;;;;25.67;23.67;;;;;10.35;69.45;103415.09;5073281;27;45607;-87
2021/12/17 10:30:28;;;;;;;;;33.00;28.33;;;;;10.39;69.07;103411.00;5073978;27;45755;-87
2021/12/17 10:32:55;;;;;;;;;35.00;29.50;;;;;10.40;69.09;103407.63;5078667;27;45716;-87
2021/12/17 10:35:25;;;;;;;;;32.00;26.67;;;;;10.37;68.78;103399.47;5073410;27;45602;-87
2021/12/17 10:37:58;;;;;;;;;32.75;29.25;;;;;10.42;69.03;103405.09;5076040;27;45450;-87
2021/12/17 10:40:37;;;;;;;;;38.25;32.50;;;;;10.41;68.93;103406.81;5066976;28;45622;-87
2021/12/17 10:43:15;;;;;;;;;33.25;26.25;;;;;10.43;68.95;103399.09;5080644;27;45551;-87
2021/12/17 10:45:58;;;;;;;;;29.25;26.50;;;;;10.50;68.83;103402.41;5066172;28;46605;-87
2021/12/17 10:51:07;;;;;;;;;31.50;30.50;;;;;10.58;68.51;103379.47;5070018;27;49578;-87
2021/12/17 10:53:33;;;;;;;;;28.67;25.67;;;;;10.65;68.44;103382.63;5072471;27;45620;-86
2021/12/17 10:55:59;;;;;;;;;30.00;27.33;;;;;10.70;68.52;103378.69;5099915;27;47963;-87
2021/12/17 10:58:25;;;;;;;;;36.50;29.25;;;;;10.76;68.27;103373.97;5059742;28;45507;-86
2021/12/17 11:00:58;;;;;;;;;34.00;28.25;;;;;10.80;67.65;103377.78;5063476;27;45589;-87
2021/12/17 11:03:24;;;;;;;;;37.00;28.00;;;;;10.79;67.99;103369.00;5075855;27;45788;-87
2021/12/17 11:05:49;;;;;;;;;44.25;32.50;;;;;10.86;67.97;103366.88;5061256;27;47974;-87
2021/12/17 11:08:20;;;;;;;;;30.00;25.00;;;;;10.89;68.11;103369.78;5080941;27;60067;-88
2021/12/17 11:10:57;;;;;;;;;37.75;28.75;;;;;10.92;67.99;103360.47;5064796;28;46349;-87
2021/12/17 11:13:24;;;;;;;;;33.50;28.50;;;;;10.96;67.45;103351.13;5081279;27;45548;-87
2021/12/17 11:15:50;;;;;;;;;29.67;26.67;;;;;10.98;67.48;103344.28;5060036;27;46608;-88
2021/12/17 11:18:17;;;;;;;;;27.00;22.33;;;;;11.00;67.71;103337.47;5060989;28;45448;-88
2021/12/17 11:20:43;;;;;;;;;33.75;28.50;;;;;11.07;67.07;103325.78;5074316;27;45381;-87
2021/12/17 11:23:13;;;;;;;;;30.00;27.00;;;;;11.11;67.01;103325.22;5061089;27;45317;-88
2021/12/17 11:25:41;;;;;;;;;35.50;28.50;;;;;11.16;66.81;103336.13;5081066;27;47426;-86
2021/12/17 11:28:08;;;;;;;;;32.00;25.67;;;;;11.24;66.96;103335.09;5075039;27;45872;-88
2021/12/17 11:30:36;;;;;;;;;38.25;34.25;;;;;11.32;66.63;103334.81;5064318;27;45392;-86
2021/12/17 11:33:04;;;;;;;;;32.75;26.75;;;;;11.38;66.60;103341.53;5055862;28;45705;-87
2021/12/17 11:35:31;;;;;;;;;32.50;28.75;;;;;11.39;65.80;103327.56;5084547;27;46277;-86
2021/12/17 11:38:15;;;;;;;;;34.00;26.00;;;;;11.44;65.66;103317.41;5065934;28;45337;-85
2021/12/17 11:41:12;;;;;;;;;31.33;28.33;;;;;11.54;66.07;103321.75;5078858;27;45554;-85
2021/12/17 11:43:49;;;;;;;;;34.67;32.00;;;;;11.56;65.40;103330.69;5062608;28;45497;-86
2021/12/17 11:46:17;;;;;;;;;34.33;31.67;;;;;11.55;65.25;103310.44;5052917;28;45571;-85
2021/12/17 11:48:51;;;;;;;;;33.33;27.67;;;;;11.59;65.54;103314.25;5057814;28;45896;-85
2021/12/17 11:51:23;;;;;;;;;26.00;24.33;;;;;11.59;65.38;103304.66;5068089;27;45582;-86
2021/12/17 11:53:52;;;;;;;;;27.00;26.67;;;;;11.58;64.63;103309.75;5051800;28;45382;-88
2021/12/17 11:56:45;;;;;;;;;31.00;28.33;;;;;11.56;64.52;103298.19;5067867;27;48519;-89
2021/12/17 11:59:32;;;;;;;;;27.33;23.00;;;;;11.63;64.08;103295.28;5069118;28;45635;-90
2021/12/17 12:02:25;;;;;;;;;26.33;25.00;;;;;11.68;63.22;103303.53;5065635;28;45381;-88
2021/12/17 12:04:59;;;;;;;;;31.33;25.67;;;;;11.68;63.04;103300.91;5069536;27;45706;-88
2021/12/17 12:07:24;;;;;;;;;29.00;25.00;;;;;11.67;63.54;103293.84;5063562;27;45458;-88
2021/12/17 12:10:01;;;;;;;;;27.33;22.67;;;;;11.69;63.01;103292.25;5063795;28;45768;-89
2021/12/17 12:12:40;;;;;;;;;29.67;23.00;;;;;11.71;62.85;103293.28;5068004;27;45424;-88
2021/12/17 12:15:22;;;;;;;;;22.33;19.67;;;;;11.75;62.63;103286.56;5085007;27;45518;-87
2021/12/17 12:17:57;;;;;;;;;29.67;26.00;;;;;11.76;61.96;103283.13;5057027;28;46614;-88
2021/12/17 12:20:37;;;;;;;;;30.33;26.00;;;;;11.80;63.02;103275.59;5068221;27;45766;-88
2021/12/17 12:23:31;;;;;;;;;28.67;24.67;;;;;11.89;63.00;103285.97;5071798;27;45364;-88
2021/12/17 12:26:02;;;;;;;;;26.33;25.00;;;;;11.93;62.71;103288.03;5057798;28;45383;-87
2021/12/17 12:31:17;;;;;;;;;28.67;27.67;;;;;12.04;62.16;103275.75;5059780;28;45417;-88
2021/12/17 12:34:01;;;;;;;;;35.33;26.33;;;;;12.10;62.02;103280.59;5062697;28;45353;-87
2021/12/17 12:36:53;;;;;;;;;32.67;28.67;;;;;12.13;61.97;103259.81;5081602;27;45322;-88
2021/12/17 12:39:29;;;;;;;;;28.67;23.67;;;;;12.20;62.18;103260.28;5067464;27;47722;-88
2021/12/17 12:41:55;;;;;;;;;34.67;26.33;;;;;12.23;62.10;103266.72;5070248;27;45540;-88
2021/12/17 12:44:41;;;;;;;;;30.67;25.00;;;;;12.17;62.17;103255.69;5076137;27;45424;-88
2021/12/17 12:47:27;;;;;;;;;31.00;28.33;;;;;12.07;61.57;103241.78;5055625;27;45579;-88
2021/12/17 12:49:56;;;;;;;;;33.00;27.67;;;;;12.24;61.90;103259.75;5069327;27;47521;-88
2021/12/17 12:52:31;;;;;;;;;28.33;24.00;;;;;12.26;61.05;103260.78;5066383;27;45545;-88
2021/12/17 12:55:22;;;;;;;;;30.67;25.00;;;;;12.25;61.72;103266.84;5077641;27;45465;-87
2021/12/17 12:57:54;;;;;;;;;26.67;21.33;;;;;12.20;61.25;103257.66;5070477;27;45738;-87
2021/12/17 13:00:29;;;;;;;;;25.33;23.67;;;;;12.18;60.75;103244.38;5059188;28;47465;-88
2021/12/17 13:02:57;;;;;;;;;25.33;23.33;;;;;12.23;60.84;103243.03;5059410;28;45635;-87
2021/12/17 13:05:23;;;;;;;;;27.33;24.33;;;;;12.34;61.43;103235.97;5066692;28;46080;-87
2021/12/17 13:07:55;;;;;;;;;27.33;25.00;;;;;12.47;61.26;103237.81;5058999;27;45231;-88
2021/12/17 13:10:32;;;;;;;;;30.33;26.67;;;;;12.57;60.98;103250.03;5070048;27;48203;-87
2021/12/17 13:13:22;;;;;;;;;29.33;23.33;;;;;12.54;60.41;103246.22;5058725;28;51740;-88
2021/12/17 13:24:21;;;;;;;;;35.00;26.33;;;;;12.01;60.90;103237.75;5067165;28;45431;-86
2021/12/17 13:26:52;;;;;;;;;27.00;25.00;;;;;12.11;61.22;103232.41;5058603;28;45652;-88
2021/12/17 13:29:23;;;;;;;;;29.67;26.00;;;;;12.24;61.24;103241.31;5072407;27;45559;-88
2021/12/17 13:31:57;;;;;;;;;30.67;22.33;;;;;12.36;60.50;103246.63;5075632;27;47144;-88
2021/12/17 13:34:34;;;;;;;;;27.33;23.67;;;;;12.39;60.36;103239.91;5068682;27;54841;-87
2021/12/17 13:37:07;;;;;;;;;26.33;22.33;;;;;12.37;60.54;103248.47;5078338;27;45560;-88
2021/12/17 13:39:42;;;;;;;;;25.33;24.33;;;;;12.23;60.05;103244.75;5079443;27;45389;-88
2021/12/17 13:42:09;;;;;;;;;30.00;26.67;;;;;12.06;60.40;103250.47;5070575;28;47355;-88
2021/12/17 13:44:39;;;;;;;;;24.33;20.33;;;;;11.94;60.49;103241.59;5057000;28;45639;-88
2021/12/17 13:47:21;;;;;;;;;29.00;27.00;;;;;11.84;59.79;103232.97;5072865;28;45451;-88
2021/12/17 13:50:03;;;;;;;;;29.00;29.00;;;;;11.77;60.80;103234.97;5058839;28;45449;-88
2021/12/17 13:52:31;;;;;;;;;25.33;25.33;;;;;11.66;60.76;103231.47;5075682;27;47192;-87
2021/12/17 13:54:59;;;;;;;;;30.67;25.67;;;;;11.54;60.97;103234.03;5058403;28;45444;-88
2021/12/17 13:57:29;;;;;;;;;32.33;29.33;;;;;11.49;61.19;103224.03;5063007;28;45472;-88
2021/12/17 14:00:11;;;;;;;;;28.33;25.00;;;;;11.39;61.42;103221.47;5070530;27;45794;-88
2021/12/17 14:02:39;;;;;;;;;24.33;21.67;;;;;11.36;61.63;103216.88;5063409;27;46515;-87
2021/12/17 14:05:14;;;;;;;;;25.33;23.00;;;;;11.31;61.66;103223.47;5085511;27;45834;-88
2021/12/17 14:07:40;;;;;;;;;25.67;20.00;;;;;11.20;62.12;103213.75;5059608;28;45465;-88
2021/12/17 14:10:05;;;;;;;;;31.67;28.00;;;;;11.23;62.27;103219.28;5067349;28;45357;-87
2021/12/17 14:12:36;;;;;;;;;21.67;21.00;;;;;11.20;62.32;103213.75;5080558;27;48430;-87
2021/12/17 14:15:08;;;;;;;;;31.00;25.50;;;;;11.12;62.51;103206.16;5059489;28;45501;-88
2021/12/17 14:17:39;;;;;;;;;21.33;19.33;;;;;11.09;62.29;103212.88;5071222;27;45849;-88
2021/12/17 14:20:11;;;;;;;;;27.33;24.00;;;;;11.12;62.98;103218.38;5074456;27;45763;-87
2021/12/17 14:22:39;;;;;;;;;26.33;22.67;;;;;11.12;62.87;103219.31;5066224;28;45688;-88
2021/12/17 14:25:31;;;;;;;;;27.67;23.00;;;;;11.12;62.77;103224.56;5060967;28;45447;-88
2021/12/17 14:27:59;;;;;;;;;30.33;23.00;;;;;11.06;63.03;103214.44;5066927;28;45417;-88
2021/12/17 14:30:33;;;;;;;;;27.67;23.00;;;;;11.10;63.02;103228.78;5069969;27;45497;-88
2021/12/17 14:33:07;;;;;;;;;30.33;27.33;;;;;11.10;63.19;103218.28;5057459;28;46397;-87
2021/12/17 14:35:54;;;;;;;;;29.67;25.00;;;;;11.12;63.25;103210.50;5067244;28;45450;-88
2021/12/17 14:38:34;;;;;;;;;27.00;23.33;;;;;11.08;63.12;103211.03;5067688;28;45499;-87
2021/12/17 14:41:01;;;;;;;;;23.33;21.67;;;;;11.01;63.32;103199.09;5066674;28;45710;-87
2021/12/17 14:43:52;;;;;;;;;28.75;23.25;;;;;10.96;63.33;103201.34;5078106;27;47248;-88
2021/12/17 14:46:29;;;;;;;;;30.33;22.67;;;;;10.95;63.26;103215.28;5101249;27;45442;-87
2021/12/17 15:05:18;;;;;;;;;24.67;21.00;;;;;10.66;63.23;103205.84;5009697;28;45813;-88
2021/12/17 15:07:44;;;;;;;;;20.00;20.00;;;;;10.68;63.30;103215.69;5004657;28;45826;-87
2021/12/17 15:10:12;;;;;;;;;22.33;21.00;;;;;10.65;63.36;103207.56;4995346;28;47460;-88
2021/12/17 15:12:39;;;;;;;;;18.33;18.33;;;;;10.63;63.49;103208.22;5011710;28;48391;-88
2021/12/17 15:15:09;;;;;;;;;20.33;17.33;;;;;10.61;63.83;103205.47;5003766;28;47595;-88
2021/12/17 15:17:34;;;;;;;;;24.33;16.00;;;;;10.58;63.38;103205.19;4992979;28;45980;-86
2021/12/17 15:20:00;;;;;;;;;22.00;18.67;;;;;10.56;63.74;103207.72;5005825;28;45503;-88
2021/12/17 15:22:27;;;;;;;;;21.33;21.00;;;;;10.50;63.62;103201.88;5012602;28;45540;-88
2021/12/17 15:24:53;;;;;;;;;21.33;18.33;;;;;10.48;63.61;103204.38;4993120;28;47578;-88
2021/12/17 15:27:18;;;;;;;;;19.33;18.67;;;;;10.47;64.05;103206.88;5017696;28;49093;-89
2021/12/17 15:29:43;;;;;;;;;23.00;17.00;;;;;10.48;63.49;103217.53;5038668;28;45507;-88
2021/12/17 15:32:09;;;;;;;;;23.67;20.00;;;;;10.46;64.01;103216.44;5081171;27;45365;-88
2021/12/17 15:34:34;;;;;;;;;20.67;19.00;;;;;10.47;64.18;103212.13;5092082;27;46975;-88
2021/12/17 15:36:59;;;;;;;;;22.67;19.00;;;;;10.46;64.12;103216.44;5062178;27;45353;-87
2021/12/17 15:39:28;;;;;;;;;22.33;19.67;;;;;10.45;63.99;103219.88;5064014;28;45497;-88
2021/12/17 15:41:54;;;;;;;;;19.67;18.00;;;;;10.36;64.09;103213.84;5073730;27;45594;-88
2021/12/17 15:44:20;;;;;;;;;22.00;18.00;;;;;10.41;64.19;103228.25;5077421;27;48528;-90
2021/12/17 15:46:46;;;;;;;;;22.67;19.00;;;;;10.35;64.35;103217.25;5072518;28;45536;-87
2021/12/17 15:49:11;;;;;;;;;21.00;17.67;;;;;10.36;64.43;103230.50;5081134;27;45687;-87
2021/12/17 15:51:37;;;;;;;;;19.33;17.00;;;;;10.36;64.48;103238.38;5066346;28;45455;-87
2021/12/17 15:54:04;;;;;;;;;19.33;17.33;;;;;10.27;64.66;103222.75;5071229;27;47469;-88
2021/12/17 15:56:31;;;;;;;;;20.00;17.00;;;;;10.27;64.79;103221.84;5087525;27;45528;-87
2021/12/17 15:58:58;;;;;;;;;25.00;19.00;;;;;10.27;64.63;103229.69;5074176;28;45398;-88
2021/12/17 16:01:23;;;;;;;;;24.00;20.00;;;;;10.26;64.78;103222.59;5065820;28;45487;-87
2021/12/17 16:03:48;;;;;;;;;24.67;20.67;;;;;10.22;64.95;103229.31;5072629;27;46256;-88
2021/12/17 16:06:14;;;;;;;;;26.67;21.67;;;;;10.14;65.10;103218.13;5084837;27;45375;-87
2021/12/17 16:08:46;;;;;;;;;27.33;22.33;;;;;10.15;65.28;103229.56;5059253;27;45344;-87
2021/12/17 16:21:39;;;;;;;;;29.33;24.00;;;;;10.02;66.34;103236.38;5070632;27;45382;-87
2021/12/17 16:24:05;;;;;;;;;33.25;24.25;;;;;10.03;66.13;103242.50;5063742;28;47101;-87
2021/12/17 16:26:31;;;;;;;;;25.00;21.33;;;;;10.00;66.15;103237.03;5060753;27;46859;-87
2021/12/17 16:28:56;;;;;;;;;22.00;20.67;;;;;10.00;66.25;103244.88;5078651;27;46108;-87
2021/12/17 16:31:26;;;;;;;;;23.67;22.33;;;;;10.00;66.21;103247.50;5063792;27;45393;-86
2021/12/17 16:33:55;;;;;;;;;30.67;26.33;;;;;9.96;66.47;103238.44;5065757;27;46279;-89
2021/12/17 16:36:20;;;;;;;;;28.00;26.33;;;;;9.97;66.50;103237.66;5063627;27;45508;-86
2021/12/17 16:38:46;;;;;;;;;30.00;26.33;;;;;9.94;66.65;103245.25;5079951;27;45413;-88
2021/12/17 16:41:12;;;;;;;;;24.50;21.00;;;;;9.90;66.45;103241.44;5066618;28;45487;-87
2021/12/17 16:43:40;;;;;;;;;27.00;25.33;;;;;9.85;66.54;103237.47;5072468;27;45956;-87
2021/12/17 16:48:40;;;;;;;;;25.00;22.33;;;;;9.82;66.72;103235.50;5068140;27;45440;-88
2021/12/17 16:51:06;;;;;;;;;27.50;23.75;;;;;9.82;67.01;103245.06;5069565;28;46133;-87
2021/12/17 16:53:31;;;;;;;;;31.33;22.67;;;;;9.77;67.01;103238.50;5068634;27;45566;-89
2021/12/17 16:55:57;;;;;;;;;29.00;22.00;;;;;9.81;66.90;103252.03;5072376;28;46093;-87
2021/12/17 16:58:22;;;;;;;;;29.00;24.00;;;;;9.76;67.09;103237.59;5065647;27;45601;-87
2021/12/17 17:00:47;;;;;;;;;29.00;21.00;;;;;9.80;66.84;103233.53;5067723;27;45444;-87
2021/12/17 17:03:14;;;;;;;;;28.00;22.33;;;;;9.78;67.11;103237.72;5067980;28;46097;-87
2021/12/17 17:05:41;;;;;;;;;30.00;23.33;;;;;9.76;67.28;103248.09;5070908;27;46475;-87
2021/12/17 17:08:06;;;;;;;;;29.00;25.00;;;;;9.69;66.95;103229.97;5078206;27;45518;-89
2021/12/17 17:10:34;;;;;;;;;26.00;22.67;;;;;9.69;67.13;103225.63;5065831;27;45849;-86
2021/12/17 17:13:03;;;;;;;;;28.00;25.00;;;;;9.68;66.99;103218.56;5067864;27;46357;-86
2021/12/17 17:15:33;;;;;;;;;31.00;26.00;;;;;9.68;67.15;103228.13;5078003;27;45841;-86
2021/12/17 17:17:59;;;;;;;;;31.25;24.25;;;;;9.64;67.31;103221.66;5076574;27;45496;-89
2021/12/17 17:20:25;;;;;;;;;27.00;21.67;;;;;9.61;67.19;103224.94;5066002;27;45452;-85
2021/12/17 17:22:50;;;;;;;;;29.75;25.50;;;;;9.63;67.23;103227.72;5070086;28;47150;-85
2021/12/17 17:25:15;;;;;;;;;29.33;26.33;;;;;9.64;67.34;103229.53;5066333;27;45481;-85
2021/12/17 17:27:41;;;;;;;;;33.67;28.33;;;;;9.60;67.33;103222.19;5057244;28;45495;-85
2021/12/17 17:30:07;;;;;;;;;30.00;25.00;;;;;9.56;67.26;103215.72;5059166;27;45452;-86
2021/12/17 17:32:34;;;;;;;;;30.67;27.33;;;;;9.56;67.33;103217.47;5070621;27;46406;-85
2021/12/17 17:35:02;;;;;;;;;31.75;26.75;;;;;9.54;67.56;103219.94;5085023;27;45520;-85
2021/12/17 17:37:31;;;;;;;;;32.25;26.50;;;;;9.54;67.37;103227.78;5095794;27;45942;-86
2021/12/17 17:39:57;;;;;;;;;28.33;24.67;;;;;9.53;67.36;103227.66;5062058;27;45680;-86
2021/12/17 17:42:22;;;;;;;;;29.67;25.00;;;;;9.49;67.51;103223.84;5070383;28;46045;-85
2021/12/17 17:44:48;;;;;;;;;28.33;24.67;;;;;9.47;67.71;103226.34;5079220;27;45629;-85
2021/12/17 17:47:13;;;;;;;;;35.00;29.25;;;;;9.44;67.68;103214.63;5074325;27;45562;-86
2021/12/17 17:49:39;;;;;;;;;30.67;26.00;;;;;9.44;67.55;103219.88;5062972;27;45725;-86